Time;durP1;ratioP1;P1;durP2;ratioP2;P2;SDS_P1;SDS_P2;PMS_P1;PMS_P2;Temp;Humidity;BMP_temperature;BMP_pressure;BME280_temperature;BME280_humidity;BME280_pressure;Samples;Min_cycle;Max_cycle;Signal;HPM_P1;HPM_P2
2023/08/30 00:01:53;;;;;;;11.23;10.13;;;;;;;14.48;100.00;100799.47;5045882;28;20049;-78
2023/08/30 00:04:22;;;;;;;11.45;10.30;;;;;;;14.44;100.00;100798.66;5034496;28;20053;-77
2023/08/30 00:06:49;;;;;;;12.15;10.82;;;;;;;14.41;100.00;100791.63;5001445;28;20045;-78
2023/08/30 00:09:17;;;;;;;14.45;10.77;;;;;;;14.38;100.00;100789.00;5060392;28;20055;-77
2023/08/30 00:11:44;;;;;;;13.43;11.98;;;;;;;14.36;100.00;100787.28;5026812;28;20498;-77
2023/08/30 00:14:12;;;;;;;12.32;11.13;;;;;;;14.32;100.00;100788.22;5038212;28;20045;-78
2023/08/30 00:16:39;;;;;;;12.82;11.55;;;;;;;14.29;100.00;100780.31;5055023;28;20405;-78
2023/08/30 00:19:07;;;;;;;12.70;11.43;;;;;;;14.26;100.00;100788.31;5022474;28;20064;-79
2023/08/30 00:21:34;;;;;;;12.38;11.07;;;;;;;14.21;100.00;100776.00;5000993;28;20056;-77
2023/08/30 00:24:01;;;;;;;13.27;11.77;;;;;;;14.19;100.00;100777.78;5034960;28;20411;-77
2023/08/30 00:26:29;;;;;;;11.98;10.77;;;;;;;14.18;100.00;100775.16;5059450;28;20041;-77
2023/08/30 00:28:56;;;;;;;14.45;12.63;;;;;;;14.15;100.00;100772.53;5053052;28;20497;-77
2023/08/30 00:31:24;;;;;;;14.05;12.18;;;;;;;14.12;100.00;100767.25;5064540;28;20115;-77
2023/08/30 00:33:52;;;;;;;13.43;12.13;;;;;;;14.10;100.00;100774.38;5054672;28;20052;-77
2023/08/30 00:36:20;;;;;;;13.23;11.93;;;;;;;14.07;100.00;100770.00;4996726;28;20025;-78
2023/08/30 00:38:49;;;;;;;13.23;11.93;;;;;;;14.04;100.00;100764.72;5048284;28;20064;-77
2023/08/30 00:41:16;;;;;;;12.40;11.30;;;;;;;14.01;100.00;100768.28;5048005;28;20048;-77
2023/08/30 00:43:44;;;;;;;14.73;13.25;;;;;;;13.98;100.00;100757.72;5013482;28;20056;-77
2023/08/30 00:46:11;;;;;;;14.93;13.43;;;;;;;13.96;100.00;100772.75;5040272;28;20037;-77
2023/08/30 00:48:40;;;;;;;14.63;13.30;;;;;;;13.94;100.00;100765.75;5066726;28;20044;-77
2023/08/30 00:51:09;;;;;;;15.23;13.77;;;;;;;13.93;100.00;100771.91;4989854;28;20520;-77
2023/08/30 00:53:39;;;;;;;14.45;13.05;;;;;;;13.89;100.00;100768.41;5052371;28;20045;-77
2023/08/30 00:56:07;;;;;;;15.65;14.07;;;;;;;13.87;100.00;100767.56;5044031;28;20047;-77
2023/08/30 00:58:35;;;;;;;14.43;13.00;;;;;;;13.83;100.00;100766.72;5033415;28;20044;-78
2023/08/30 01:01:07;;;;;;;15.38;13.77;;;;;;;13.82;100.00;100766.75;5049435;28;20426;-77
2023/08/30 01:03:37;;;;;;;16.25;14.60;;;;;;;13.80;100.00;100760.63;5035790;28;20505;-76
2023/08/30 01:06:05;;;;;;;17.13;14.20;;;;;;;13.78;100.00;100760.63;5058160;28;20033;-78
2023/08/30 01:08:33;;;;;;;16.20;13.80;;;;;;;13.77;100.00;100758.84;5003359;28;20068;-77
2023/08/30 01:11:26;;;;;;;15.88;13.32;;;;;;;13.76;100.00;100764.16;5033295;28;20493;-76
2023/08/30 01:13:59;;;;;;;15.50;13.13;;;;;;;13.73;100.00;100756.28;5045902;28;20052;-78
2023/08/30 01:16:27;;;;;;;15.95;13.38;;;;;;;13.72;100.00;100762.44;5045621;28;20056;-76
2023/08/30 01:18:56;;;;;;;14.23;12.10;;;;;;;13.68;100.00;100758.94;5048783;28;20056;-77
2023/08/30 01:21:38;;;;;;;13.98;12.65;;;;;;;13.67;100.00;100753.66;5063576;28;20521;-78
2023/08/30 01:24:11;;;;;;;14.18;12.88;;;;;;;13.63;100.00;100752.84;5014977;28;20047;-78
2023/08/30 01:26:51;;;;;;;14.82;13.20;;;;;;;13.61;100.00;100759.91;5048508;28;20767;-78
2023/08/30 01:29:20;;;;;;;14.70;13.20;;;;;;;13.58;100.00;100758.19;5035097;28;20509;-77
2023/08/30 01:31:48;;;;;;;14.70;13.18;;;;;;;13.57;100.00;100755.53;5016469;28;20060;-77
2023/08/30 01:34:16;;;;;;;14.23;12.88;;;;;;;13.54;100.00;100761.75;5058354;28;20059;-77
2023/08/30 01:36:44;;;;;;;15.00;13.50;;;;;;;13.53;100.00;100762.63;5065259;28;20032;-77
2023/08/30 01:39:14;;;;;;;17.00;14.38;;;;;;;13.51;100.00;100775.03;5002426;28;20048;-77
2023/08/30 01:41:42;;;;;;;15.95;14.02;;;;;;;13.49;100.00;100763.56;5058229;28;20049;-77
2023/08/30 01:44:10;;;;;;;16.35;14.55;;;;;;;13.48;100.00;100763.56;5049614;28;20057;-77
2023/08/30 01:46:39;;;;;;;15.32;13.80;;;;;;;13.44;100.00;100760.97;5019715;28;20045;-77
2023/08/30 01:49:08;;;;;;;16.48;14.77;;;;;;;13.43;100.00;100755.69;5059466;28;20069;-77
2023/08/30 01:51:36;;;;;;;16.70;15.05;;;;;;;13.41;100.00;100753.06;5035970;28;20048;-77
2023/08/30 01:54:05;;;;;;;16.80;15.02;;;;;;;13.41;100.00;100762.78;5017426;28;20049;-77
2023/08/30 01:56:33;;;;;;;16.15;14.52;;;;;;;13.41;100.00;100754.84;5059277;28;20425;-76
2023/08/30 01:59:00;;;;;;;17.20;15.50;;;;;;;13.39;100.00;100751.34;5049401;28;20053;-77
2023/08/30 02:01:29;;;;;;;16.77;14.60;;;;;;;13.37;100.00;100745.19;5038052;28;20580;-77
2023/08/30 02:03:56;;;;;;;15.07;13.52;;;;;;;13.35;100.00;100745.19;5045032;28;20053;-77
2023/08/30 02:06:35;;;;;;;17.77;15.10;;;;;;;13.32;100.00;100739.91;5030185;28;20059;-78
2023/08/30 02:09:21;;;;;;;15.88;14.27;;;;;;;13.30;100.00;100739.06;5011344;28;20055;-78
2023/08/30 02:11:51;;;;;;;15.32;13.48;;;;;;;13.29;100.00;100744.31;5053860;28;20064;-77
2023/08/30 02:14:20;;;;;;;15.45;13.95;;;;;;;13.26;100.00;100732.88;5052288;28;20457;-76
2023/08/30 02:16:48;;;;;;;16.13;14.52;;;;;;;13.25;100.00;100731.16;5052275;28;20073;-77
2023/08/30 02:19:20;;;;;;;15.73;14.18;;;;;;;13.22;100.00;100740.88;5062098;28;20048;-77
2023/08/30 02:21:48;;;;;;;18.90;15.63;;;;;;;13.20;100.00;100732.94;5047717;28;20049;-76
2023/08/30 02:24:18;;;;;;;17.13;15.40;;;;;;;13.18;100.00;100745.31;5021723;28;20059;-77
2023/08/30 02:26:45;;;;;;;17.02;15.30;;;;;;;13.14;100.00;100730.38;5054940;28;20299;-77
2023/08/30 02:29:13;;;;;;;17.30;15.50;;;;;;;13.12;100.00;100731.25;5053887;28;20056;-78
2023/08/30 02:31:42;;;;;;;18.52;14.55;;;;;;;13.09;100.00;100740.09;5040414;28;20512;-77
2023/08/30 02:34:09;;;;;;;17.33;14.98;;;;;;;13.06;100.00;100724.25;5066427;28;20044;-77
2023/08/30 02:36:37;;;;;;;16.60;14.68;;;;;;;13.03;100.00;100737.53;5045863;28;20041;-77
2023/08/30 02:39:04;;;;;;;16.55;14.73;;;;;;;12.99;100.00;100727.88;5044882;28;20040;-77
2023/08/30 02:41:32;;;;;;;17.17;14.85;;;;;;;12.98;100.00;100726.09;5004775;28;20049;-77
2023/08/30 02:44:00;;;;;;;16.42;14.73;;;;;;;12.96;100.00;100720.81;5040132;28;20056;-77
2023/08/30 02:46:27;;;;;;;17.35;15.45;;;;;;;12.94;100.00;100719.09;5054288;28;20052;-77
2023/08/30 02:48:56;;;;;;;16.23;14.38;;;;;;;12.91;100.00;100724.38;5053850;28;20064;-77
2023/08/30 02:51:23;;;;;;;18.88;14.63;;;;;;;12.88;100.00;100722.66;5083774;28;20052;-77
2023/08/30 02:53:51;;;;;;;18.55;15.30;;;;;;;12.85;100.00;100718.28;5049716;28;20068;-78
2023/08/30 02:56:18;;;;;;;17.05;14.60;;;;;;;12.83;100.00;100716.50;5012309;28;20516;-77
2023/08/30 02:58:47;;;;;;;18.85;15.20;;;;;;;12.79;100.00;100710.38;5054198;28;20056;-77
2023/08/30 03:01:15;;;;;;;19.73;16.17;;;;;;;12.76;100.00;100699.84;5056939;28;20063;-77
2023/08/30 03:03:42;;;;;;;18.88;16.00;;;;;;;12.74;100.00;100701.63;5045883;28;20520;-78
2023/08/30 03:06:09;;;;;;;19.38;16.63;;;;;;;12.72;100.00;100702.50;5041971;28;20045;-78
2023/08/30 03:08:38;;;;;;;17.42;15.52;;;;;;;12.69;100.00;100695.47;5053438;28;20048;-77
2023/08/30 03:11:13;;;;;;;16.70;15.00;;;;;;;12.67;100.00;100699.91;5048029;28;20064;-77
2023/08/30 03:13:48;;;;;;;17.45;15.65;;;;;;;12.65;100.00;100694.63;5021322;28;20064;-77
2023/08/30 03:16:17;;;;;;;16.60;14.55;;;;;;;12.64;100.00;100689.34;5027063;28;20394;-76
2023/08/30 03:18:44;;;;;;;18.20;15.57;;;;;;;12.61;100.00;100694.69;5043853;28;20378;-77
2023/08/30 03:21:13;;;;;;;21.95;17.13;;;;;;;12.59;100.00;100693.78;5063294;28;20055;-77
2023/08/30 03:23:41;;;;;;;21.05;16.45;;;;;;;12.56;100.00;100699.13;5058001;28;20048;-77
2023/08/30 03:26:14;;;;;;;19.05;15.27;;;;;;;12.53;100.00;100685.91;5054563;28;20040;-78
2023/08/30 03:28:44;;;;;;;16.00;14.40;;;;;;;12.50;100.00;100686.81;4997483;28;20052;-77
2023/08/30 03:31:17;;;;;;;17.70;14.57;;;;;;;12.47;100.00;100690.34;5064206;28;20049;-77
2023/08/30 03:33:47;;;;;;;18.80;13.52;;;;;;;12.44;100.00;100677.16;5032426;28;20041;-77
2023/08/30 03:36:16;;;;;;;19.13;15.38;;;;;;;12.43;100.00;100677.16;5041325;28;20052;-78
2023/08/30 03:38:45;;;;;;;16.23;14.52;;;;;;;12.42;100.00;100678.03;5054980;28;20056;-78
2023/08/30 03:41:13;;;;;;;16.85;14.05;;;;;;;12.39;100.00;100675.44;5065564;28;20061;-78
2023/08/30 03:43:42;;;;;;;18.40;13.70;;;;;;;12.36;100.00;100671.06;5013142;28;20044;-77
2023/08/30 03:46:11;;;;;;;19.42;14.40;;;;;;;12.33;100.00;100663.16;5048978;28;20044;-77
2023/08/30 03:48:40;;;;;;;16.38;14.35;;;;;;;12.33;100.00;100668.44;5042705;28;20056;-77
2023/08/30 03:51:07;;;;;;;19.60;13.50;;;;;;;12.31;100.00;100666.72;5054245;28;20413;-78
2023/08/30 03:53:35;;;;;;;16.40;13.90;;;;;;;12.29;100.00;100661.44;5049437;28;20048;-77
2023/08/30 03:56:03;;;;;;;17.17;13.57;;;;;;;12.27;100.00;100661.44;5029453;28;20502;-77
2023/08/30 03:58:31;;;;;;;15.00;13.18;;;;;;;12.24;100.00;100657.94;5026723;28;20051;-77
2023/08/30 04:00:59;;;;;;;15.85;12.95;;;;;;;12.21;100.00;100650.91;5064401;28;20055;-77
2023/08/30 04:03:26;;;;;;;15.38;12.88;;;;;;;12.21;100.00;100652.66;4993013;28;23733;-77
2023/08/30 04:05:57;;;;;;;14.02;12.18;;;;;;;12.18;100.00;100647.41;5068729;28;20402;-77
2023/08/30 04:08:25;;;;;;;19.25;14.38;;;;;;;12.16;100.00;100642.13;5049609;28;20411;-77
2023/08/30 04:10:54;;;;;;;20.00;14.55;;;;;;;12.15;100.00;100643.00;5035964;28;20052;-77
2023/08/30 04:13:23;;;;;;;;;;;;;;;12.14;100.00;100638.63;5057144;28;20064;-77
2023/08/30 04:15:51;;;;;;;14.18;12.68;;;;;;;12.13;100.00;100636.00;5013601;28;19921;-77
2023/08/30 04:18:18;;;;;;;14.43;12.00;;;;;;;12.11;100.00;100640.41;5055984;28;20044;-77
2023/08/30 04:20:47;;;;;;;15.77;12.57;;;;;;;12.09;100.00;100640.41;5050600;28;20509;-77
2023/08/30 04:23:15;;;;;;;17.00;13.45;;;;;;;12.07;100.00;100634.25;5057702;28;20060;-77
2023/08/30 04:25:44;;;;;;;15.60;13.35;;;;;;;12.05;100.00;100641.31;5050805;28;20048;-77
2023/08/30 04:28:12;;;;;;;14.57;12.93;;;;;;;12.03;100.00;100632.53;5054235;28;20051;-77
2023/08/30 04:30:39;;;;;;;15.95;13.65;;;;;;;11.98;100.00;100629.91;5006062;28;20051;-77
2023/08/30 04:33:08;;;;;;;17.38;13.93;;;;;;;11.97;100.00;100629.94;5058744;28;20053;-77
2023/08/30 04:35:35;;;;;;;16.30;14.00;;;;;;;11.95;100.00;100624.66;5051555;28;20055;-77
2023/08/30 04:38:03;;;;;;;15.18;13.57;;;;;;;11.93;100.00;100622.91;5027090;28;20041;-77
2023/08/30 04:40:32;;;;;;;15.82;13.73;;;;;;;11.92;100.00;100621.16;5054573;28;20049;-77
2023/08/30 04:43:00;;;;;;;16.60;14.87;;;;;;;11.89;100.00;100617.66;5059974;28;20387;-77
2023/08/30 04:45:29;;;;;;;15.60;13.52;;;;;;;11.89;100.00;100614.13;5014748;28;20056;-78
2023/08/30 04:47:57;;;;;;;18.88;14.35;;;;;;;11.88;100.00;100618.50;5051372;28;20056;-77
2023/08/30 04:50:30;;;;;;;15.20;13.52;;;;;;;11.87;100.00;100613.22;5018536;28;20059;-77
2023/08/30 04:52:59;;;;;;;17.90;13.75;;;;;;;11.85;100.00;100612.34;5051506;28;20045;-77
2023/08/30 04:55:30;;;;;;;16.80;13.57;;;;;;;11.83;100.00;100609.75;5033791;28;20041;-77
2023/08/30 04:57:59;;;;;;;18.48;13.85;;;;;;;11.82;100.00;100605.34;5034373;28;20048;-77
2023/08/30 05:00:31;;;;;;;16.58;13.80;;;;;;;11.82;100.00;100609.75;5050350;28;20042;-77
2023/08/30 05:02:59;;;;;;;16.23;12.27;;;;;;;11.82;100.00;100609.75;5019425;28;20053;-77
2023/08/30 05:05:27;;;;;;;14.30;12.80;;;;;;;11.81;100.00;100600.06;5061084;28;20068;-78
2023/08/30 05:07:57;;;;;;;14.45;12.85;;;;;;;11.82;100.00;100612.38;5040764;28;20049;-78
2023/08/30 05:10:25;;;;;;;14.13;12.63;;;;;;;11.84;100.00;100607.97;5025195;28;20044;-76
2023/08/30 05:12:54;;;;;;;14.68;13.02;;;;;;;11.86;100.00;100611.47;5027273;28;20064;-77
2023/08/30 05:15:24;;;;;;;15.45;12.80;;;;;;;11.88;100.00;100605.28;5046926;28;20071;-76
2023/08/30 05:17:51;;;;;;;14.98;12.73;;;;;;;11.90;100.00;100602.69;5016842;28;20037;-77
2023/08/30 05:20:19;;;;;;;20.95;13.25;;;;;;;11.93;100.00;100605.31;5046747;28;21021;-77
2023/08/30 05:22:48;;;;;;;15.43;12.02;;;;;;;11.96;100.00;100609.69;5047958;28;20056;-77
2023/08/30 05:25:18;;;;;;;15.70;12.70;;;;;;;11.96;100.00;100600.00;5039282;28;20057;-76
2023/08/30 05:27:47;;;;;;;15.23;12.75;;;;;;;11.99;100.00;100610.53;5042674;28;20529;-77
2023/08/30 05:30:16;;;;;;;14.38;12.13;;;;;;;12.01;100.00;100608.78;5060047;28;20060;-77
2023/08/30 05:32:43;;;;;;;14.85;11.68;;;;;;;12.05;100.00;100605.22;5040577;28;20409;-77
2023/08/30 05:35:28;;;;;;;14.43;12.85;;;;;;;12.10;100.00;100602.56;5032771;28;20044;-77
2023/08/30 05:38:19;;;;;;;14.10;11.52;;;;;;;12.13;100.00;100605.16;5026496;28;20565;-78
2023/08/30 05:40:57;;;;;;;13.38;11.38;;;;;;;12.18;100.00;100603.38;5038675;28;20612;-77
2023/08/30 05:43:24;;;;;;;16.02;11.48;;;;;;;12.24;100.00;100595.41;5051953;28;20442;-78
2023/08/30 05:45:52;;;;;;;13.15;10.93;;;;;;;12.30;100.00;100586.53;5051305;28;20556;-77
2023/08/30 05:48:21;;;;;;;11.93;10.73;;;;;;;12.36;100.00;100583.88;5020386;28;20044;-77
2023/08/30 05:50:48;;;;;;;12.80;11.13;;;;;;;12.44;100.00;100576.75;5056403;28;20056;-77
2023/08/30 05:53:16;;;;;;;14.48;12.00;;;;;;;12.50;100.00;100574.94;5029641;28;20406;-77
2023/08/30 05:55:43;;;;;;;12.25;10.73;;;;;;;12.53;100.00;100562.56;5055332;28;20399;-77
2023/08/30 05:58:10;;;;;;;15.55;10.93;;;;;;;12.59;100.00;100566.91;5058255;28;20041;-77
2023/08/30 06:00:38;;;;;;;16.38;10.88;;;;;;;12.63;100.00;100563.38;5038040;28;20044;-78
2023/08/30 06:03:05;;;;;;;13.88;10.98;;;;;;;12.67;100.00;100565.94;5048140;28;20052;-77
2023/08/30 06:05:34;;;;;;;13.35;10.65;;;;;;;12.73;100.00;100572.94;5004532;28;20059;-77
2023/08/30 06:08:02;;;;;;;13.20;11.43;;;;;;;12.74;100.00;100558.84;5038217;28;20075;-77
2023/08/30 06:10:29;;;;;;;13.57;10.32;;;;;;;12.76;100.00;100557.06;5030631;28;20053;-77
2023/08/30 06:12:56;;;;;;;12.52;10.65;;;;;;;12.80;100.00;100552.63;5047406;28;20081;-77
2023/08/30 06:15:24;;;;;;;11.68;10.40;;;;;;;12.84;100.00;100559.63;5053083;28;20056;-77
2023/08/30 06:17:52;;;;;;;12.68;10.02;;;;;;;12.86;100.00;100553.41;5046677;28;20067;-77
2023/08/30 06:20:19;;;;;;;12.57;10.52;;;;;;;12.91;100.00;100547.19;5003714;28;20513;-77
2023/08/30 06:22:46;;;;;;;11.70;10.13;;;;;;;12.95;100.00;100540.97;5075219;28;20055;-76
2023/08/30 06:25:14;;;;;;;15.82;11.15;;;;;;;12.96;100.00;100543.59;5033613;28;20057;-77
2023/08/30 06:27:43;;;;;;;12.40;10.20;;;;;;;13.01;100.00;100548.84;5051309;28;20045;-77
2023/08/30 06:30:11;;;;;;;11.82;10.25;;;;;;;13.04;100.00;100551.44;5029831;28;20064;-77
2023/08/30 06:32:38;;;;;;;15.13;11.25;;;;;;;13.06;100.00;100545.25;5057297;28;20061;-77
2023/08/30 06:35:06;;;;;;;13.38;10.65;;;;;;;13.10;100.00;100535.53;5024448;28;20045;-77
2023/08/30 06:37:33;;;;;;;12.13;9.85;;;;;;;13.15;100.00;100540.75;5033573;28;20449;-78
2023/08/30 06:40:03;;;;;;;14.13;10.73;;;;;;;13.20;100.00;100536.28;5048653;28;20049;-77
2023/08/30 06:42:30;;;;;;;12.00;10.25;;;;;;;13.24;100.00;100538.00;5040556;28;20055;-77
2023/08/30 06:44:57;;;;;;;12.65;9.80;;;;;;;13.30;100.00;100537.94;5037924;28;20041;-77
2023/08/30 06:47:25;;;;;;;16.05;11.05;;;;;;;13.36;100.00;100523.75;5040968;28;20036;-77
2023/08/30 06:49:52;;;;;;;14.98;10.13;;;;;;;13.45;100.00;100520.97;5038364;28;20403;-77
2023/08/30 06:52:20;;;;;;;11.95;10.73;;;;;;;13.55;100.00;100525.22;5000965;28;20047;-77
2023/08/30 06:54:47;;;;;;;10.90;9.77;;;;;;;13.65;100.00;100518.94;5035069;28;20056;-77
2023/08/30 06:57:16;;;;;;;10.63;9.50;;;;;;;13.82;100.00;100526.63;5055398;28;20429;-77
2023/08/30 06:59:43;;;;;;;12.43;9.48;;;;;;;13.96;100.00;100518.44;5048054;28;20045;-77
2023/08/30 07:02:13;;;;;;;11.43;9.45;;;;;;;14.10;100.00;100528.84;5043659;28;20056;-78
2023/08/30 07:04:40;;;;;;;11.48;9.32;;;;;;;14.27;100.00;100531.19;5041534;28;20052;-77
2023/08/30 07:07:08;;;;;;;13.05;8.63;;;;;;;14.43;100.00;100526.50;4997285;28;20053;-77
2023/08/30 07:09:35;;;;;;;9.80;8.82;;;;;;;14.52;100.00;100533.44;5052052;28;20045;-77
2023/08/30 07:12:04;;;;;;;11.88;8.52;;;;;;;14.56;100.00;100527.16;5022111;28;20055;-77
2023/08/30 07:14:32;;;;;;;11.93;8.02;;;;;;;14.59;100.00;100519.16;5039167;28;20053;-77
2023/08/30 07:17:00;;;;;;;11.27;8.10;;;;;;;14.61;100.00;100523.56;5054501;28;20512;-77
2023/08/30 07:19:27;;;;;;;13.02;8.55;;;;;;;14.67;100.00;100517.25;5038352;28;20519;-78
2023/08/30 07:21:55;;;;;;;10.63;8.68;;;;;;;14.69;100.00;100522.50;5013771;28;20049;-77
2023/08/30 07:24:23;;;;;;;10.02;7.95;;;;;;;14.72;100.00;100511.84;5032727;28;20067;-77
2023/08/30 07:26:51;;;;;;;11.27;8.10;;;;;;;14.78;100.00;100509.06;5059983;28;20060;-78
2023/08/30 07:29:18;;;;;;;9.73;8.38;;;;;;;14.87;100.00;100505.38;5010853;28;20055;-79
2023/08/30 07:31:45;;;;;;;10.25;7.70;;;;;;;14.93;100.00;100506.16;5041582;28;20055;-78
2023/08/30 07:34:13;;;;;;;10.00;8.23;;;;;;;15.04;100.00;100510.34;5055047;28;20037;-77
2023/08/30 07:36:40;;;;;;;10.45;7.85;;;;;;;15.11;100.00;100501.38;5054645;28;20033;-77
2023/08/30 07:39:14;;;;;;;12.20;8.35;;;;;;;15.24;100.00;100501.97;4992205;28;20048;-77
2023/08/30 07:41:42;;;;;;;8.23;7.35;;;;;;;15.34;100.00;100498.22;5046745;28;20060;-77
2023/08/30 07:44:09;;;;;;;9.90;7.50;;;;;;;15.39;100.00;100499.84;5052840;28;20045;-77
2023/08/30 07:46:36;;;;;;;8.38;7.47;;;;;;;15.45;100.00;100504.16;5051023;28;20083;-77
2023/08/30 07:49:03;;;;;;;8.82;7.93;;;;;;;15.47;100.00;100505.00;5052037;28;20040;-77
2023/08/30 07:51:31;;;;;;;8.65;7.10;;;;;;;15.52;100.00;100515.50;5059467;28;20053;-77
2023/08/30 07:53:58;;;;;;;9.20;7.50;;;;;;;15.52;100.00;100512.84;5003125;28;20619;-78
2023/08/30 07:56:26;;;;;;;8.85;7.50;;;;;;;15.53;100.00;100510.16;5048122;28;20405;-77
2023/08/30 07:58:54;;;;;;;9.50;7.45;;;;;;;15.53;100.00;100520.78;5049537;28;20418;-77
2023/08/30 08:01:21;;;;;;;7.60;6.78;;;;;;;15.53;100.00;100514.59;5026717;28;20049;-77
2023/08/30 08:03:49;;;;;;;9.23;7.55;;;;;;;15.53;100.00;100514.59;5050193;28;20060;-78
2023/08/30 08:06:33;;;;;;;10.43;7.30;;;;;;;15.53;100.00;100515.47;5047916;28;20437;-78
2023/08/30 08:09:01;;;;;;;9.73;6.60;;;;;;;15.55;100.00;100518.97;5023270;28;20052;-78
2023/08/30 08:11:29;;;;;;;8.73;6.95;;;;;;;15.59;100.00;100525.97;5028395;28;20506;-78
2023/08/30 08:13:56;;;;;;;10.18;6.55;;;;;;;15.64;100.00;100528.50;5065701;28;20049;-79
2023/08/30 08:16:24;;;;;;;9.95;6.68;;;;;;;15.68;100.00;100524.00;5058858;28;20044;-78
2023/08/30 08:18:51;;;;;;;9.55;7.03;;;;;;;15.69;100.00;100531.94;5049454;28;20040;-79
2023/08/30 08:21:19;;;;;;;9.38;7.35;;;;;;;15.70;100.00;100531.03;5063534;28;20051;-77
2023/08/30 08:23:49;;;;;;;10.55;7.82;;;;;;;15.68;100.00;100535.50;5008883;28;20049;-78
2023/08/30 08:26:17;;;;;;;11.73;8.60;;;;;;;15.62;100.00;100532.97;5034210;28;20057;-78
2023/08/30 08:28:44;;;;;;;10.95;8.13;;;;;;;15.60;100.00;100532.16;5037282;28;20478;-78
2023/08/30 08:31:12;;;;;;;10.07;8.38;;;;;;;15.58;100.00;100529.53;5060642;28;20049;-77
2023/08/30 08:33:40;;;;;;;11.20;8.60;;;;;;;15.55;100.00;100540.19;5017647;28;20041;-77
2023/08/30 08:36:07;;;;;;;10.73;7.90;;;;;;;15.53;100.00;100536.72;5061236;28;20044;-77
2023/08/30 08:38:35;;;;;;;9.88;8.13;;;;;;;15.55;100.00;100537.53;5040551;28;20048;-77
2023/08/30 08:41:05;;;;;;;9.70;8.18;;;;;;;15.54;100.00;100533.16;5024219;28;20048;-77
2023/08/30 08:43:36;;;;;;;10.23;8.02;;;;;;;15.53;100.00;100547.31;5040974;28;20049;-77
2023/08/30 08:46:06;;;;;;;10.95;8.68;;;;;;;15.53;100.00;100539.38;5031693;28;20045;-78
2023/08/30 08:48:40;;;;;;;11.63;9.07;;;;;;;15.51;100.00;100541.19;5043724;28;20055;-77
2023/08/30 08:51:08;;;;;;;13.32;9.90;;;;;;;15.48;100.00;100535.06;5072394;28;20060;-78
2023/08/30 08:53:37;;;;;;;12.40;8.65;;;;;;;15.46;100.00;100543.06;5041814;28;20045;-78
2023/08/30 08:56:07;;;;;;;11.18;8.32;;;;;;;15.44;100.00;100536.91;5039294;28;20620;-78
2023/08/30 08:58:38;;;;;;;10.00;8.73;;;;;;;15.45;100.00;100537.81;5055175;28;20072;-78
2023/08/30 09:01:06;;;;;;;12.95;9.25;;;;;;;15.44;100.00;100536.91;5058353;28;20035;-78
2023/08/30 09:03:44;;;;;;;11.30;8.77;;;;;;;15.45;100.00;100538.66;5041438;28;20049;-77
2023/08/30 09:06:12;;;;;;;9.75;7.93;;;;;;;15.48;100.00;100535.06;5060007;28;20749;-77
2023/08/30 09:08:40;;;;;;;11.40;8.43;;;;;;;15.51;100.00;100538.53;5017911;28;20049;-77
2023/08/30 09:11:08;;;;;;;10.85;8.13;;;;;;;15.56;100.00;100546.41;5024274;28;20052;-78
2023/08/30 09:13:35;;;;;;;13.98;8.77;;;;;;;15.63;100.00;100540.03;5062388;28;20044;-77
2023/08/30 09:16:11;;;;;;;9.65;8.35;;;;;;;15.71;100.00;100540.75;5040726;28;20052;-77
2023/08/30 09:18:39;;;;;;;12.80;8.90;;;;;;;15.79;100.00;100537.94;5056165;28;20050;-77
2023/08/30 09:21:08;;;;;;;11.27;8.48;;;;;;;15.87;100.00;100533.31;5026571;28;20041;-77
2023/08/30 09:23:36;;;;;;;12.90;9.10;;;;;;;15.94;100.00;100534.91;5052928;28;20049;-77
2023/08/30 09:26:04;;;;;;;10.52;8.32;;;;;;;16.03;100.00;100530.28;4989328;28;20060;-77
2023/08/30 09:28:41;;;;;;;12.57;8.85;;;;;;;16.10;100.00;100538.06;5047719;28;20505;-77
2023/08/30 09:31:17;;;;;;;11.13;8.90;;;;;;;16.17;100.00;100538.81;5061990;28;20044;-77
2023/08/30 09:33:49;;;;;;;13.33;8.60;;;;;;;16.21;100.00;100539.59;5029819;28;20056;-77
2023/08/30 09:36:16;;;;;;;10.93;8.82;;;;;;;16.24;100.00;100542.16;5042469;28;20306;-78
2023/08/30 09:38:50;;;;;;;9.90;8.77;;;;;;;16.24;100.00;100542.16;5066164;28;20051;-77
2023/08/30 09:41:17;;;;;;;10.32;8.50;;;;;;;16.25;100.00;100531.50;4998442;28;20053;-77
2023/08/30 09:43:47;;;;;;;9.38;8.27;;;;;;;16.27;100.00;100529.66;5046939;28;20058;-77
2023/08/30 09:46:25;;;;;;;10.40;8.73;;;;;;;16.28;100.00;100530.56;5051251;28;20532;-77
2023/08/30 09:49:12;;;;;;;12.80;9.27;;;;;;;16.26;100.00;100532.41;5075381;28;20579;-78
2023/08/30 09:51:42;;;;;;;11.38;9.25;;;;;;;16.30;100.00;100528.75;5067615;28;20040;-78
2023/08/30 09:54:17;;;;;;;10.73;8.50;;;;;;;16.32;100.00;100530.44;5059805;28;20071;-76
2023/08/30 09:57:06;;;;;;;9.27;7.15;;;;;;;16.34;100.00;100517.09;5000958;28;20052;-77
2023/08/30 09:59:33;;;;;;;12.50;8.48;;;;;;;16.35;100.00;100510.84;5021426;28;20053;-77
2023/08/30 10:02:02;;;;;;;8.13;6.93;;;;;;;16.33;100.00;100526.88;5030100;28;20045;-77
2023/08/30 10:04:34;;;;;;;13.10;7.07;;;;;;;16.29;100.00;100526.97;5041781;28;20060;-77
2023/08/30 10:07:04;;;;;;;8.50;6.32;;;;;;;16.22;100.00;100513.00;5046869;28;20065;-78
2023/08/30 10:09:32;;;;;;;9.05;5.95;;;;;;;16.21;100.00;100513.88;5047767;28;20049;-77
2023/08/30 10:12:03;;;;;;;12.55;6.43;;;;;;;16.20;100.00;100511.25;5016994;28;20048;-77
2023/08/30 10:14:30;;;;;;;7.68;6.30;;;;;;;16.19;100.00;100510.41;5081495;28;20052;-77
2023/08/30 10:17:08;;;;;;;7.47;5.50;;;;;;;16.18;100.00;100503.31;5020491;28;20049;-77
2023/08/30 10:19:37;;;;;;;6.18;5.50;;;;;;;16.13;100.00;100505.25;5075869;28;20056;-77
2023/08/30 10:22:12;;;;;;;7.88;5.47;;;;;;;16.07;100.00;100505.41;5045987;28;20553;-77
2023/08/30 10:24:44;;;;;;;7.13;5.72;;;;;;;16.02;100.00;100512.59;5068771;28;20044;-78
2023/08/30 10:27:34;;;;;;;10.23;6.10;;;;;;;15.90;100.00;100506.69;5055141;28;20057;-78
2023/08/30 10:30:04;;;;;;;7.85;6.03;;;;;;;15.86;100.00;100504.13;5025886;28;20425;-77
2023/08/30 10:32:32;;;;;;;8.38;6.18;;;;;;;15.84;100.00;100498.88;5029809;28;20070;-79
2023/08/30 10:35:04;;;;;;;9.93;7.32;;;;;;;15.86;100.00;100505.00;5059574;28;20525;-78
2023/08/30 10:37:32;;;;;;;10.90;6.90;;;;;;;15.87;100.00;100506.75;5047593;28;20496;-76
2023/08/30 10:40:04;;;;;;;7.88;7.00;;;;;;;15.92;100.00;100504.84;5044113;28;20063;-76
2023/08/30 10:42:32;;;;;;;15.10;8.15;;;;;;;16.01;100.00;100505.53;5043529;28;20036;-76
2023/08/30 10:45:02;;;;;;;9.13;6.80;;;;;;;16.06;100.00;100501.84;5019967;28;20053;-77
2023/08/30 10:47:41;;;;;;;7.80;6.90;;;;;;;16.03;100.00;100499.28;5024632;28;20048;-77
2023/08/30 10:50:12;;;;;;;8.60;7.10;;;;;;;16.05;100.00;100491.25;5045760;28;20398;-76
2023/08/30 10:52:40;;;;;;;13.07;7.45;;;;;;;16.12;100.00;100487.53;5007579;28;20545;-76
2023/08/30 10:55:14;;;;;;;9.45;7.28;;;;;;;16.24;100.00;100496.97;5027920;28;20060;-75
2023/08/30 10:57:43;;;;;;;10.05;7.60;;;;;;;16.30;100.00;100481.75;5034348;28;20045;-76
2023/08/30 11:00:18;;;;;;;8.05;7.10;;;;;;;16.44;100.00;100493.81;5008132;28;20051;-76
2023/08/30 11:02:48;;;;;;;8.80;6.90;;;;;;;16.54;100.00;100484.66;5031855;28;20041;-76
2023/08/30 11:05:18;;;;;;;9.45;7.38;;;;;;;16.59;100.00;100488.06;5065643;28;20036;-77
2023/08/30 11:07:46;;;;;;;10.07;7.13;;;;;;;16.65;100.00;100487.03;5048440;28;20041;-77
2023/08/30 11:10:16;;;;;;;8.02;6.47;;;;;;;16.72;100.00;100488.59;5029447;28;20051;-79
2023/08/30 11:12:45;;;;;;;7.85;5.97;;;;;;;16.76;100.00;100485.81;5036951;28;20048;-77
2023/08/30 11:15:14;;;;;;;7.18;6.47;;;;;;;16.81;100.00;100483.03;5033133;28;20118;-76
2023/08/30 11:17:43;;;;;;;5.00;4.50;;;;;;;16.83;100.00;100467.91;5044530;28;20545;-76